sensor_id;sensor_type;location;lat;lon;timestamp;P1;durP1;ratioP1;P2;durP2;ratioP2
1410;SDS011;700;51.906;8.404;2022-10-24T00:02:07;11.47;;;2.93;;
1410;SDS011;700;51.906;8.404;2022-10-24T00:07:08;8.23;;;3.20;;
1410;SDS011;700;51.906;8.404;2022-10-24T00:12:09;7.30;;;3.80;;
1410;SDS011;700;51.906;8.404;2022-10-24T00:17:10;12.57;;;3.43;;
1410;SDS011;700;51.906;8.404;2022-10-24T00:22:13;6.90;;;3.10;;
1410;SDS011;700;51.906;8.404;2022-10-24T00:27:14;6.20;;;2.70;;
1410;SDS011;700;51.906;8.404;2022-10-24T00:32:16;6.80;;;2.97;;
1410;SDS011;700;51.906;8.404;2022-10-24T00:37:19;5.90;;;2.70;;
1410;SDS011;700;51.906;8.404;2022-10-24T00:42:22;9.10;;;3.03;;
1410;SDS011;700;51.906;8.404;2022-10-24T00:47:27;8.03;;;2.97;;
1410;SDS011;700;51.906;8.404;2022-10-24T00:52:30;12.93;;;3.37;;
1410;SDS011;700;51.906;8.404;2022-10-24T00:57:40;9.90;;;3.10;;
1410;SDS011;700;51.906;8.404;2022-10-24T01:02:47;8.63;;;3.60;;
1410;SDS011;700;51.906;8.404;2022-10-24T01:18:14;6.70;;;2.90;;
1410;SDS011;700;51.906;8.404;2022-10-24T01:34:14;6.60;;;3.10;;
1410;SDS011;700;51.906;8.404;2022-10-24T01:39:22;10.77;;;2.87;;
1410;SDS011;700;51.906;8.404;2022-10-24T01:44:31;12.53;;;3.53;;
1410;SDS011;700;51.906;8.404;2022-10-24T01:49:38;6.20;;;3.00;;
1410;SDS011;700;51.906;8.404;2022-10-24T01:54:42;10.77;;;3.23;;
1410;SDS011;700;51.906;8.404;2022-10-24T01:59:46;7.90;;;3.07;;
1410;SDS011;700;51.906;8.404;2022-10-24T02:04:53;6.43;;;2.77;;
1410;SDS011;700;51.906;8.404;2022-10-24T02:10:09;7.67;;;3.50;;
1410;SDS011;700;51.906;8.404;2022-10-24T02:15:22;8.50;;;3.20;;
1410;SDS011;700;51.906;8.404;2022-10-24T02:20:49;8.87;;;3.53;;
1410;SDS011;700;51.906;8.404;2022-10-24T02:25:55;7.30;;;3.40;;
1410;SDS011;700;51.906;8.404;2022-10-24T02:31:10;8.77;;;3.90;;
1410;SDS011;700;51.906;8.404;2022-10-24T02:36:17;8.90;;;3.70;;
1410;SDS011;700;51.906;8.404;2022-10-24T02:41:24;8.20;;;3.63;;
1410;SDS011;700;51.906;8.404;2022-10-24T02:46:29;6.00;;;3.37;;
1410;SDS011;700;51.906;8.404;2022-10-24T02:51:37;31.97;;;4.10;;
1410;SDS011;700;51.906;8.404;2022-10-24T02:56:44;5.13;;;2.90;;
1410;SDS011;700;51.906;8.404;2022-10-24T03:01:50;8.63;;;3.73;;
1410;SDS011;700;51.906;8.404;2022-10-24T03:06:51;11.43;;;3.60;;
1410;SDS011;700;51.906;8.404;2022-10-24T03:11:52;13.20;;;4.10;;
1410;SDS011;700;51.906;8.404;2022-10-24T03:16:53;7.93;;;3.93;;
1410;SDS011;700;51.906;8.404;2022-10-24T03:21:54;8.83;;;4.17;;
1410;SDS011;700;51.906;8.404;2022-10-24T03:26:57;5.43;;;3.23;;
1410;SDS011;700;51.906;8.404;2022-10-24T03:32:00;7.73;;;3.90;;
1410;SDS011;700;51.906;8.404;2022-10-24T03:37:01;4.80;;;3.37;;
1410;SDS011;700;51.906;8.404;2022-10-24T03:42:04;6.10;;;3.30;;
1410;SDS011;700;51.906;8.404;2022-10-24T03:47:04;8.17;;;3.30;;
1410;SDS011;700;51.906;8.404;2022-10-24T03:52:07;5.90;;;3.40;;
1410;SDS011;700;51.906;8.404;2022-10-24T03:57:08;12.13;;;4.43;;
1410;SDS011;700;51.906;8.404;2022-10-24T04:02:09;7.70;;;3.50;;
1410;SDS011;700;51.906;8.404;2022-10-24T04:07:15;6.80;;;3.60;;
1410;SDS011;700;51.906;8.404;2022-10-24T04:12:16;10.60;;;4.33;;
1410;SDS011;700;51.906;8.404;2022-10-24T04:17:19;9.10;;;3.80;;
1410;SDS011;700;51.906;8.404;2022-10-24T04:22:22;7.07;;;3.27;;
1410;SDS011;700;51.906;8.404;2022-10-24T04:27:24;6.93;;;3.83;;
1410;SDS011;700;51.906;8.404;2022-10-24T04:32:25;11.77;;;3.57;;
1410;SDS011;700;51.906;8.404;2022-10-24T04:37:26;6.17;;;2.93;;
1410;SDS011;700;51.906;8.404;2022-10-24T04:42:27;8.53;;;4.10;;
1410;SDS011;700;51.906;8.404;2022-10-24T04:47:27;6.00;;;3.50;;
1410;SDS011;700;51.906;8.404;2022-10-24T04:52:28;9.57;;;4.30;;
1410;SDS011;700;51.906;8.404;2022-10-24T04:57:31;9.50;;;3.60;;
1410;SDS011;700;51.906;8.404;2022-10-24T05:02:32;9.50;;;3.23;;
1410;SDS011;700;51.906;8.404;2022-10-24T05:07:32;8.40;;;3.80;;
1410;SDS011;700;51.906;8.404;2022-10-24T05:12:36;6.40;;;2.93;;
1410;SDS011;700;51.906;8.404;2022-10-24T05:17:36;6.77;;;2.77;;
1410;SDS011;700;51.906;8.404;2022-10-24T05:22:44;9.53;;;3.17;;
1410;SDS011;700;51.906;8.404;2022-10-24T05:27:47;4.77;;;2.87;;
1410;SDS011;700;51.906;8.404;2022-10-24T05:32:53;6.23;;;2.57;;
1410;SDS011;700;51.906;8.404;2022-10-24T05:37:55;11.00;;;2.90;;
1410;SDS011;700;51.906;8.404;2022-10-24T05:42:58;6.73;;;3.20;;
1410;SDS011;700;51.906;8.404;2022-10-24T05:48:01;12.33;;;3.07;;
1410;SDS011;700;51.906;8.404;2022-10-24T05:53:04;5.27;;;2.70;;
1410;SDS011;700;51.906;8.404;2022-10-24T05:58:08;7.03;;;3.70;;
1410;SDS011;700;51.906;8.404;2022-10-24T06:03:13;7.10;;;2.50;;
1410;SDS011;700;51.906;8.404;2022-10-24T06:08:16;9.27;;;3.30;;
1410;SDS011;700;51.906;8.404;2022-10-24T06:13:17;6.97;;;2.37;;
1410;SDS011;700;51.906;8.404;2022-10-24T06:18:17;7.73;;;2.27;;
1410;SDS011;700;51.906;8.404;2022-10-24T06:23:24;9.93;;;3.77;;
1410;SDS011;700;51.906;8.404;2022-10-24T06:28:29;7.57;;;3.03;;
1410;SDS011;700;51.906;8.404;2022-10-24T06:33:32;8.63;;;2.40;;
1410;SDS011;700;51.906;8.404;2022-10-24T06:38:36;8.40;;;2.23;;
1410;SDS011;700;51.906;8.404;2022-10-24T06:43:37;8.20;;;2.70;;
1410;SDS011;700;51.906;8.404;2022-10-24T06:48:41;8.17;;;2.70;;
1410;SDS011;700;51.906;8.404;2022-10-24T06:53:42;7.67;;;2.40;;
1410;SDS011;700;51.906;8.404;2022-10-24T06:58:43;5.17;;;2.47;;
1410;SDS011;700;51.906;8.404;2022-10-24T07:03:46;8.67;;;2.70;;
1410;SDS011;700;51.906;8.404;2022-10-24T07:08:48;5.70;;;2.97;;
1410;SDS011;700;51.906;8.404;2022-10-24T07:13:52;5.13;;;2.50;;
1410;SDS011;700;51.906;8.404;2022-10-24T07:18:54;7.13;;;2.30;;
1410;SDS011;700;51.906;8.404;2022-10-24T07:23:58;5.20;;;2.77;;
1410;SDS011;700;51.906;8.404;2022-10-24T07:28:59;5.20;;;2.90;;
1410;SDS011;700;51.906;8.404;2022-10-24T07:34:02;5.43;;;2.47;;
1410;SDS011;700;51.906;8.404;2022-10-24T07:39:04;8.33;;;2.57;;
1410;SDS011;700;51.906;8.404;2022-10-24T07:44:05;7.50;;;2.43;;
1410;SDS011;700;51.906;8.404;2022-10-24T07:49:09;6.90;;;2.53;;
1410;SDS011;700;51.906;8.404;2022-10-24T07:54:10;5.27;;;2.00;;
1410;SDS011;700;51.906;8.404;2022-10-24T07:59:10;5.83;;;2.17;;
1410;SDS011;700;51.906;8.404;2022-10-24T08:04:11;4.30;;;2.73;;
1410;SDS011;700;51.906;8.404;2022-10-24T08:09:12;7.27;;;1.93;;
1410;SDS011;700;51.906;8.404;2022-10-24T08:14:13;3.53;;;1.67;;
1410;SDS011;700;51.906;8.404;2022-10-24T08:19:16;3.97;;;1.87;;
1410;SDS011;700;51.906;8.404;2022-10-24T08:24:24;4.30;;;1.80;;
1410;SDS011;700;51.906;8.404;2022-10-24T08:29:28;4.50;;;2.27;;
1410;SDS011;700;51.906;8.404;2022-10-24T08:34:29;7.10;;;2.70;;
1410;SDS011;700;51.906;8.404;2022-10-24T08:39:29;8.83;;;2.30;;
1410;SDS011;700;51.906;8.404;2022-10-24T08:44:33;4.77;;;2.10;;
1410;SDS011;700;51.906;8.404;2022-10-24T08:54:48;8.73;;;1.93;;
1410;SDS011;700;51.906;8.404;2022-10-24T08:59:51;11.20;;;2.50;;
1410;SDS011;700;51.906;8.404;2022-10-24T09:05:00;5.03;;;1.70;;
1410;SDS011;700;51.906;8.404;2022-10-24T09:10:18;7.73;;;1.90;;
1410;SDS011;700;51.906;8.404;2022-10-24T09:15:29;6.40;;;1.87;;
1410;SDS011;700;51.906;8.404;2022-10-24T09:20:30;4.40;;;1.93;;
1410;SDS011;700;51.906;8.404;2022-10-24T09:25:36;4.40;;;1.70;;
1410;SDS011;700;51.906;8.404;2022-10-24T09:30:41;4.70;;;1.80;;
1410;SDS011;700;51.906;8.404;2022-10-24T09:36:03;6.73;;;1.70;;
1410;SDS011;700;51.906;8.404;2022-10-24T09:41:05;4.17;;;1.73;;
1410;SDS011;700;51.906;8.404;2022-10-24T09:46:29;7.63;;;2.37;;
1410;SDS011;700;51.906;8.404;2022-10-24T09:51:41;9.77;;;1.93;;
1410;SDS011;700;51.906;8.404;2022-10-24T09:56:52;4.50;;;1.60;;
1410;SDS011;700;51.906;8.404;2022-10-24T10:07:12;6.33;;;1.90;;
1410;SDS011;700;51.906;8.404;2022-10-24T10:12:25;4.70;;;1.50;;
1410;SDS011;700;51.906;8.404;2022-10-24T10:17:48;3.90;;;1.40;;
1410;SDS011;700;51.906;8.404;2022-10-24T10:22:50;6.30;;;1.80;;
1410;SDS011;700;51.906;8.404;2022-10-24T10:27:56;7.43;;;1.43;;
1410;SDS011;700;51.906;8.404;2022-10-24T10:38:45;4.67;;;1.50;;
1410;SDS011;700;51.906;8.404;2022-10-24T10:49:25;6.20;;;1.83;;
1410;SDS011;700;51.906;8.404;2022-10-24T11:00:00;4.93;;;1.80;;
1410;SDS011;700;51.906;8.404;2022-10-24T11:05:22;4.77;;;1.57;;
1410;SDS011;700;51.906;8.404;2022-10-24T11:10:37;5.53;;;1.70;;
1410;SDS011;700;51.906;8.404;2022-10-24T11:15:43;7.97;;;2.30;;
1410;SDS011;700;51.906;8.404;2022-10-24T11:20:58;3.40;;;1.73;;
1410;SDS011;700;51.906;8.404;2022-10-24T11:26:18;7.50;;;2.17;;
1410;SDS011;700;51.906;8.404;2022-10-24T11:36:34;6.67;;;1.80;;
1410;SDS011;700;51.906;8.404;2022-10-24T11:41:50;6.33;;;1.80;;
1410;SDS011;700;51.906;8.404;2022-10-24T11:47:10;8.23;;;1.70;;
1410;SDS011;700;51.906;8.404;2022-10-24T11:52:25;6.27;;;2.00;;
1410;SDS011;700;51.906;8.404;2022-10-24T11:57:29;5.00;;;1.70;;
1410;SDS011;700;51.906;8.404;2022-10-24T12:02:54;6.40;;;1.73;;
1410;SDS011;700;51.906;8.404;2022-10-24T12:08:24;4.40;;;1.40;;
1410;SDS011;700;51.906;8.404;2022-10-24T12:19:18;3.00;;;1.30;;
1410;SDS011;700;51.906;8.404;2022-10-24T12:29:35;6.90;;;2.10;;
1410;SDS011;700;51.906;8.404;2022-10-24T12:34:40;10.33;;;1.70;;
1410;SDS011;700;51.906;8.404;2022-10-24T12:39:46;9.80;;;2.77;;
1410;SDS011;700;51.906;8.404;2022-10-24T12:45:36;7.40;;;2.43;;
1410;SDS011;700;51.906;8.404;2022-10-24T13:00:37;9.40;;;2.10;;
1410;SDS011;700;51.906;8.404;2022-10-24T13:05:59;5.90;;;2.90;;
1410;SDS011;700;51.906;8.404;2022-10-24T13:21:58;4.77;;;2.20;;
1410;SDS011;700;51.906;8.404;2022-10-24T13:37:13;5.50;;;1.40;;
1410;SDS011;700;51.906;8.404;2022-10-24T13:52:37;7.73;;;1.70;;
1410;SDS011;700;51.906;8.404;2022-10-24T14:03:14;5.27;;;1.60;;
1410;SDS011;700;51.906;8.404;2022-10-24T14:08:25;6.70;;;2.10;;
1410;SDS011;700;51.906;8.404;2022-10-24T14:13:33;4.73;;;1.60;;
1410;SDS011;700;51.906;8.404;2022-10-24T14:18:38;7.07;;;2.40;;
1410;SDS011;700;51.906;8.404;2022-10-24T14:23:51;7.10;;;1.47;;
1410;SDS011;700;51.906;8.404;2022-10-24T14:28:58;6.50;;;1.50;;
1410;SDS011;700;51.906;8.404;2022-10-24T14:34:02;7.87;;;1.80;;
1410;SDS011;700;51.906;8.404;2022-10-24T14:39:19;5.83;;;1.80;;
1410;SDS011;700;51.906;8.404;2022-10-24T14:44:22;3.20;;;1.83;;
1410;SDS011;700;51.906;8.404;2022-10-24T14:54:30;5.27;;;1.93;;
1410;SDS011;700;51.906;8.404;2022-10-24T14:59:37;8.50;;;1.53;;
1410;SDS011;700;51.906;8.404;2022-10-24T15:04:44;5.47;;;1.60;;
1410;SDS011;700;51.906;8.404;2022-10-24T15:15:00;6.67;;;1.60;;
1410;SDS011;700;51.906;8.404;2022-10-24T15:20:23;7.37;;;1.80;;
1410;SDS011;700;51.906;8.404;2022-10-24T15:25:30;3.80;;;1.50;;
1410;SDS011;700;51.906;8.404;2022-10-24T15:30:35;8.07;;;1.80;;
1410;SDS011;700;51.906;8.404;2022-10-24T15:35:38;11.17;;;3.23;;
1410;SDS011;700;51.906;8.404;2022-10-24T15:40:43;7.10;;;2.67;;
1410;SDS011;700;51.906;8.404;2022-10-24T15:45:45;3.23;;;1.60;;
1410;SDS011;700;51.906;8.404;2022-10-24T15:50:48;5.40;;;1.93;;
1410;SDS011;700;51.906;8.404;2022-10-24T15:55:49;9.97;;;3.83;;
1410;SDS011;700;51.906;8.404;2022-10-24T16:00:52;9.07;;;2.90;;
1410;SDS011;700;51.906;8.404;2022-10-24T16:05:53;6.20;;;1.50;;
1410;SDS011;700;51.906;8.404;2022-10-24T16:10:58;8.00;;;2.40;;
1410;SDS011;700;51.906;8.404;2022-10-24T16:15:59;13.43;;;4.43;;
1410;SDS011;700;51.906;8.404;2022-10-24T16:21:02;6.77;;;2.17;;
1410;SDS011;700;51.906;8.404;2022-10-24T16:26:06;9.17;;;1.97;;
1410;SDS011;700;51.906;8.404;2022-10-24T16:31:11;6.07;;;2.93;;
1410;SDS011;700;51.906;8.404;2022-10-24T16:36:17;7.03;;;2.50;;
1410;SDS011;700;51.906;8.404;2022-10-24T16:41:22;9.63;;;2.20;;
1410;SDS011;700;51.906;8.404;2022-10-24T16:46:27;8.10;;;2.40;;
1410;SDS011;700;51.906;8.404;2022-10-24T16:51:30;4.93;;;1.83;;
1410;SDS011;700;51.906;8.404;2022-10-24T16:56:33;9.27;;;2.73;;
1410;SDS011;700;51.906;8.404;2022-10-24T17:01:34;4.80;;;2.07;;
1410;SDS011;700;51.906;8.404;2022-10-24T17:06:34;9.03;;;2.03;;
1410;SDS011;700;51.906;8.404;2022-10-24T17:11:35;5.77;;;2.60;;
1410;SDS011;700;51.906;8.404;2022-10-24T17:16:41;4.57;;;2.07;;
1410;SDS011;700;51.906;8.404;2022-10-24T17:21:43;6.03;;;2.00;;
1410;SDS011;700;51.906;8.404;2022-10-24T17:26:46;3.97;;;2.20;;
1410;SDS011;700;51.906;8.404;2022-10-24T17:31:49;4.73;;;2.50;;
1410;SDS011;700;51.906;8.404;2022-10-24T17:42:14;7.60;;;2.23;;
1410;SDS011;700;51.906;8.404;2022-10-24T17:47:18;10.07;;;3.27;;
1410;SDS011;700;51.906;8.404;2022-10-24T17:52:20;7.63;;;2.37;;
1410;SDS011;700;51.906;8.404;2022-10-24T17:57:22;6.77;;;2.87;;
1410;SDS011;700;51.906;8.404;2022-10-24T18:02:23;10.97;;;4.63;;
1410;SDS011;700;51.906;8.404;2022-10-24T18:07:23;6.23;;;3.00;;
1410;SDS011;700;51.906;8.404;2022-10-24T18:12:24;7.30;;;3.20;;
1410;SDS011;700;51.906;8.404;2022-10-24T18:17:30;13.13;;;3.00;;
1410;SDS011;700;51.906;8.404;2022-10-24T18:22:34;5.20;;;2.53;;
1410;SDS011;700;51.906;8.404;2022-10-24T18:27:37;6.97;;;2.60;;
1410;SDS011;700;51.906;8.404;2022-10-24T18:32:38;7.60;;;2.73;;
1410;SDS011;700;51.906;8.404;2022-10-24T18:37:39;6.33;;;2.60;;
1410;SDS011;700;51.906;8.404;2022-10-24T18:42:47;6.70;;;2.20;;
1410;SDS011;700;51.906;8.404;2022-10-24T18:47:53;8.37;;;4.03;;
1410;SDS011;700;51.906;8.404;2022-10-24T18:58:08;8.93;;;3.00;;
1410;SDS011;700;51.906;8.404;2022-10-24T19:08:32;10.90;;;3.10;;
1410;SDS011;700;51.906;8.404;2022-10-24T19:13:35;8.37;;;2.90;;
1410;SDS011;700;51.906;8.404;2022-10-24T19:18:36;6.60;;;3.30;;
1410;SDS011;700;51.906;8.404;2022-10-24T19:23:39;5.87;;;2.93;;
1410;SDS011;700;51.906;8.404;2022-10-24T19:28:39;10.87;;;3.40;;
1410;SDS011;700;51.906;8.404;2022-10-24T19:33:42;8.60;;;3.50;;
1410;SDS011;700;51.906;8.404;2022-10-24T19:38:46;5.73;;;2.63;;
1410;SDS011;700;51.906;8.404;2022-10-24T19:43:46;7.73;;;3.53;;
1410;SDS011;700;51.906;8.404;2022-10-24T19:48:47;11.17;;;3.40;;
1410;SDS011;700;51.906;8.404;2022-10-24T19:53:48;6.10;;;2.50;;
1410;SDS011;700;51.906;8.404;2022-10-24T19:58:51;6.40;;;2.10;;
1410;SDS011;700;51.906;8.404;2022-10-24T20:03:53;5.37;;;1.73;;
1410;SDS011;700;51.906;8.404;2022-10-24T20:08:54;5.77;;;2.43;;
1410;SDS011;700;51.906;8.404;2022-10-24T20:13:58;11.30;;;2.27;;
1410;SDS011;700;51.906;8.404;2022-10-24T20:18:59;4.33;;;2.30;;
1410;SDS011;700;51.906;8.404;2022-10-24T20:23:59;3.43;;;1.60;;
1410;SDS011;700;51.906;8.404;2022-10-24T20:29:00;9.30;;;1.90;;
1410;SDS011;700;51.906;8.404;2022-10-24T20:34:02;5.60;;;1.83;;
1410;SDS011;700;51.906;8.404;2022-10-24T20:39:10;5.60;;;1.90;;
1410;SDS011;700;51.906;8.404;2022-10-24T20:44:13;4.70;;;1.70;;
1410;SDS011;700;51.906;8.404;2022-10-24T20:49:17;5.90;;;1.80;;
1410;SDS011;700;51.906;8.404;2022-10-24T20:54:17;4.17;;;1.70;;
1410;SDS011;700;51.906;8.404;2022-10-24T20:59:18;4.10;;;1.57;;
1410;SDS011;700;51.906;8.404;2022-10-24T21:04:19;3.83;;;1.67;;
1410;SDS011;700;51.906;8.404;2022-10-24T21:09:19;3.60;;;1.50;;
1410;SDS011;700;51.906;8.404;2022-10-24T21:14:25;4.10;;;1.43;;
1410;SDS011;700;51.906;8.404;2022-10-24T21:19:25;5.53;;;1.47;;
1410;SDS011;700;51.906;8.404;2022-10-24T21:24:26;3.27;;;1.70;;
1410;SDS011;700;51.906;8.404;2022-10-24T21:29:31;2.10;;;1.13;;
1410;SDS011;700;51.906;8.404;2022-10-24T21:34:32;3.87;;;1.67;;
1410;SDS011;700;51.906;8.404;2022-10-24T21:39:32;4.33;;;2.10;;
1410;SDS011;700;51.906;8.404;2022-10-24T21:44:36;2.07;;;1.07;;
1410;SDS011;700;51.906;8.404;2022-10-24T21:49:36;4.20;;;1.50;;
1410;SDS011;700;51.906;8.404;2022-10-24T21:54:39;4.50;;;1.77;;
1410;SDS011;700;51.906;8.404;2022-10-24T21:59:40;3.40;;;1.30;;
1410;SDS011;700;51.906;8.404;2022-10-24T22:04:43;2.90;;;1.20;;
1410;SDS011;700;51.906;8.404;2022-10-24T22:09:45;4.37;;;1.77;;
1410;SDS011;700;51.906;8.404;2022-10-24T22:14:46;3.33;;;1.57;;
1410;SDS011;700;51.906;8.404;2022-10-24T22:19:47;4.30;;;1.33;;
1410;SDS011;700;51.906;8.404;2022-10-24T22:24:50;2.30;;;1.33;;
1410;SDS011;700;51.906;8.404;2022-10-24T22:29:50;4.30;;;1.73;;
1410;SDS011;700;51.906;8.404;2022-10-24T22:34:53;4.43;;;1.90;;
1410;SDS011;700;51.906;8.404;2022-10-24T22:39:54;4.50;;;1.60;;
1410;SDS011;700;51.906;8.404;2022-10-24T22:44:55;3.90;;;1.67;;
1410;SDS011;700;51.906;8.404;2022-10-24T22:55:26;3.13;;;1.50;;
1410;SDS011;700;51.906;8.404;2022-10-24T23:00:36;3.70;;;1.83;;
1410;SDS011;700;51.906;8.404;2022-10-24T23:05:42;5.13;;;1.53;;
1410;SDS011;700;51.906;8.404;2022-10-24T23:10:46;3.60;;;2.00;;
1410;SDS011;700;51.906;8.404;2022-10-24T23:15:47;4.73;;;2.37;;
1410;SDS011;700;51.906;8.404;2022-10-24T23:20:50;7.17;;;2.83;;
1410;SDS011;700;51.906;8.404;2022-10-24T23:26:07;5.03;;;2.20;;
1410;SDS011;700;51.906;8.404;2022-10-24T23:31:18;5.97;;;2.30;;
1410;SDS011;700;51.906;8.404;2022-10-24T23:36:20;7.00;;;2.60;;
1410;SDS011;700;51.906;8.404;2022-10-24T23:41:23;6.27;;;3.40;;
1410;SDS011;700;51.906;8.404;2022-10-24T23:51:44;5.30;;;2.30;;
1410;SDS011;700;51.906;8.404;2022-10-24T23:56:49;8.13;;;2.40;;
